Strona główna
METAR-TAF:

METAR-TAF

Lotnisko :

Morrisville-Stowe State Airport

Morrisville, Vermont, Stany Zjednoczone

Szerokość geograficzna: 44-32-10N, Długość geograficzna: 072-36-58W, wysokość: 223 m

Aktualna obserwacja pogody

Raport powstał 29 minut temu, godzina 18:54 UTC
Wiatr 5 kt od wschodnio-południowy wschód
Temperatura 8°C
Wilgotność 93%
Ciśnienie 1009 hPa
Widzialność: 16.1 km
Przerywane chmury na wysokości 1000 ft
Zachmurzenie całkowite na wysokości 1900 ft

METAR: KMVL 151854Z AUTO 11005KT 10SM BKN010 OVC019 08/07 A2981 RMK AO2 RAB1759E08 SLP102 P0000 T00780072

czas: 15:23 (19:23 UTC)


TAF: brakujący

Obserwacja i prognoza pogody dla ponad 4000 lotnisk (raport METAR i TAF).

Dostępne stacje oznaczono żółtymi i czerwonymi punktami na mapie.

Najedź kursorem aby zobaczyć nazwę stacji.

Kliknij aby zobaczyć obserwacje i prognozy pogody.

Aby zmienić mapę: kliknij na zielony przycisk z czarnym krzyżykiem, aby powiększyć; na zielony przycisk z myślnikiem, aby pomniejszyć; na zielone strzałki, aby przejść do map sąsiednich.


METAR-TAF: